Date,TemperatureHighF,TemperatureAvgF,TemperatureLowF,DewpointHighF,DewpointAvgF,DewpointLowF,HumidityHigh,HumidityAvg,HumidityLow,PressureMaxIn,PressureMinIn,WindSpeedMaxMPH,WindSpeedAvgMPH,GustSpeedMaxMPH,PrecipitationSumIn
2014-1-1,46.7,33.8,22.5,29.5,24.7,20.1,92,71,44,30.44,30.17,13,1,13,0.00
2014-1-2,47.4,33.3,17.7,44.5,30.1,14.5,94,88,71,30.17,29.71,13,0,13,0.04
2014-1-3,28.5,17.0,10.5,14.4,10.2,5.6,90,75,50,30.49,30.01,15,1,15,0.00
2014-1-4,46.0,30.6,15.3,39.4,20.1,5.1,93,66,33,30.50,30.24,12,1,12,0.02
2014-1-5,55.9,46.4,39.3,49.8,43.2,38.3,98,89,77,30.24,29.65,12,1,13,0.01
2014-1-6,48.0,19.6,0.0,45.4,15.4,-6.0,94,83,62,30.35,29.62,15,1,16,0.05
2014-1-7,21.0,6.5,-3.2,4.7,-3.1,-8.8,82,66,37,30.64,30.35,9,0,9,0.00
2014-1-8,45.2,21.7,5.2,20.9,11.6,2.3,90,68,31,30.71,30.56,3,0,3,0.01
2014-1-9,51.5,34.5,20.5,37.5,23.9,12.3,89,69,22,30.59,30.42,5,0,12,0.00
2014-1-10,52.8,43.0,35.6,51.2,41.7,32.9,98,95,82,30.47,30.03,6,0,9,0.20
2014-1-11,61.1,51.1,41.2,52.4,45.6,33.5,99,83,41,30.03,29.59,14,1,14,1.04
2014-1-12,55.7,42.3,33.9,35.1,31.5,25.8,87,68,32,30.17,29.84,9,0,9,0.00
2014-1-13,54.4,40.4,28.5,39.3,32.7,26.9,96,76,45,30.15,29.92,12,1,12,0.00
2014-1-14,53.2,42.4,31.3,40.9,35.7,27.5,96,79,45,29.99,29.79,10,0,10,0.07
2014-1-15,38.6,31.2,24.5,32.0,26.7,17.8,95,84,61,30.06,29.94,7,0,7,0.01
2014-1-16,43.4,28.6,18.0,20.0,16.1,12.7,88,62,32,30.10,29.96,5,0,8,0.00
2014-1-17,50.7,33.9,23.9,25.6,20.2,12.2,90,61,23,30.02,29.82,13,1,13,0.00
2014-1-18,37.0,25.6,16.3,21.1,15.2,11.2,88,67,41,30.14,29.99,10,0,10,0.01
2014-1-19,46.9,35.2,26.0,30.9,23.5,14.5,82,64,42,30.06,29.95,11,0,13,0.00
2014-1-20,63.8,39.9,22.4,27.6,23.2,17.8,86,56,21,30.01,29.87,3,0,7,0.00
2014-1-21,45.7,30.5,14.8,33.7,24.6,10.1,91,79,50,29.99,29.66,11,1,11,0.01
2014-1-22,29.6,17.1,7.1,10.4,4.3,-3.2,86,60,31,30.20,29.98,10,0,10,0.00
2014-1-23,29.9,19.3,7.2,13.1,6.4,-6.2,69,57,46,30.56,30.20,11,1,11,0.00
2014-1-24,29.5,12.5,0.5,7.5,-3.2,-9.2,77,52,23,30.68,30.28,5,0,5,0.00
2014-1-25,34.2,26.0,11.0,25.8,11.8,-10.0,92,58,20,30.28,29.80,15,1,15,0.00
2014-1-26,55.6,36.9,21.4,28.3,19.8,9.3,74,53,25,30.00,29.86,9,0,9,0.01
2014-1-27,48.3,37.2,20.6,36.4,24.6,1.7,82,61,39,30.17,29.85,11,1,11,0.00
2014-1-28,21.7,17.8,14.2,18.0,9.8,1.2,88,72,45,30.28,30.16,3,0,6,0.00
2014-1-29,30.5,15.1,5.9,10.5,3.7,-2.7,86,64,28,30.43,30.27,6,0,6,0.00
2014-1-30,41.9,20.1,0.7,13.4,5.5,-2.6,89,58,25,30.46,30.24,13,0,13,0.05
2014-1-31,52.4,30.5,16.2,21.5,15.7,10.5,84,58,21,30.31,30.19,5,0,5,0.05
2014-2-1,65.9,41.7,23.6,38.0,25.8,12.6,85,59,16,30.27,30.09,14,1,14,0.00
2014-2-2,60.7,45.5,27.9,51.3,38.2,26.4,94,77,50,30.14,29.94,17,0,17,0.01
2014-2-3,57.2,44.9,36.7,55.2,42.3,34.7,98,91,74,30.20,29.80,13,1,13,0.97
2014-2-4,48.4,39.9,31.7,41.6,36.7,31.0,98,89,72,30.32,30.01,12,1,12,0.08
2014-2-5,52.8,42.3,26.9,48.5,38.5,23.9,97,86,70,30.21,29.81,9,1,16,0.04
2014-2-6,33.7,27.1,23.4,25.0,21.8,19.5,89,80,69,30.37,30.21,9,0,9,0.00
2014-2-7,45.2,31.4,22.6,26.9,23.6,20.7,94,74,45,30.41,30.28,4,0,4,0.00
2014-2-8,53.5,36.6,30.6,35.7,28.4,23.4,96,73,44,30.30,30.14,5,0,5,0.00
2014-2-9,53.0,38.4,28.0,38.6,33.0,26.8,97,82,55,30.20,30.02,8,0,8,0.00
2014-2-10,37.5,33.0,29.9,34.0,30.8,28.1,95,91,86,30.24,30.08,6,0,6,0.02
2014-2-11,34.6,30.8,27.1,32.0,28.9,25.9,96,93,88,30.33,30.22,4,0,4,0.02
2014-2-12,28.7,25.4,23.2,26.6,21.8,15.2,95,86,68,30.35,29.88,13,1,13,0.00
2014-2-13,33.3,28.4,25.1,31.1,26.2,22.8,95,91,83,29.88,29.74,0,0,0,0.00
2014-2-14,58.4,40.0,26.9,33.0,27.9,22.0,87,65,31,29.90,29.66,10,0,10,0.65
2014-2-15,40.4,30.4,24.4,34.1,24.0,17.3,93,78,54,30.14,29.60,16,1,16,0.02
2014-2-16,54.9,36.4,22.4,34.0,26.8,18.8,94,71,39,30.21,30.09,9,0,9,0.03
2014-2-17,49.9,38.4,26.9,33.4,29.4,25.1,95,72,48,30.29,30.11,14,1,14,0.01
2014-2-18,65.9,48.3,35.1,36.0,28.8,18.5,88,52,19,30.28,30.04,10,0,10,0.00
2014-2-19,71.3,55.7,47.6,55.9,46.7,35.9,98,74,43,30.06,29.90,12,1,12,0.21
2014-2-20,70.3,58.2,45.5,54.7,50.6,42.5,92,77,54,30.08,29.83,14,1,14,0.00
2014-2-21,62.7,50.7,35.4,56.2,36.4,14.9,95,62,20,30.06,29.70,17,1,17,0.49
2014-2-22,66.0,49.0,37.8,26.0,20.0,11.3,60,35,14,30.22,30.05,11,0,11,0.00
2014-2-23,72.0,51.4,34.9,34.0,27.9,20.8,73,43,19,30.08,29.87,10,0,10,0.00
2014-2-24,52.7,42.3,30.1,34.6,26.1,15.2,83,55,28,30.15,29.97,12,1,12,0.00
2014-2-25,53.5,39.8,30.0,27.4,22.4,18.6,71,51,29,30.11,29.97,6,0,9,0.00
2014-2-26,40.6,33.3,24.8,21.8,18.9,12.3,64,55,43,30.00,29.84,7,0,12,0.00
2014-2-27,45.4,29.1,19.4,14.0,6.7,-3.3,67,43,17,30.06,29.91,14,1,14,0.00
2014-2-28,50.7,33.6,17.9,17.3,12.6,8.9,75,45,22,30.26,30.06,9,1,9,0.00
2014-3-1,60.7,44.2,31.0,33.9,25.7,15.6,74,49,31,30.33,30.16,11,0,11,0.00
2014-3-2,69.0,51.5,33.9,49.7,40.3,29.9,86,67,47,30.24,29.89,16,1,16,0.00
2014-3-3,56.3,40.3,27.8,49.4,37.8,25.5,96,91,71,30.18,29.72,12,0,12,0.25
2014-3-4,46.7,34.5,26.0,28.7,25.3,17.6,95,71,41,30.28,30.15,15,1,15,0.00
2014-3-5,61.1,41.4,28.1,34.1,28.2,23.6,88,63,28,30.22,30.07,9,0,9,0.00
2014-3-6,42.4,37.1,32.8,33.5,22.5,15.8,95,57,35,30.26,30.07,12,1,12,0.02
2014-3-7,54.7,40.9,32.5,42.6,36.5,31.5,97,86,59,30.08,29.95,5,0,5,0.31
2014-3-8,67.3,47.0,30.6,41.5,33.7,29.7,98,66,27,30.16,30.02,6,0,6,0.00
2014-3-9,64.2,50.8,43.4,40.5,32.4,20.1,78,52,24,30.15,30.06,12,1,12,0.00
2014-3-10,69.5,50.1,31.6,43.6,35.3,25.3,79,59,31,30.09,29.88,9,1,9,0.00
2014-3-11,79.0,55.4,35.6,43.8,36.1,29.7,92,55,17,29.91,29.69,8,0,8,0.00
2014-3-12,70.8,52.5,30.3,56.2,44.2,26.0,93,75,46,29.79,29.30,10,2,17,0.08
2014-3-13,42.1,31.2,25.5,27.3,15.6,5.4,91,56,26,30.29,29.79,14,1,14,0.01
2014-3-14,63.7,40.9,22.0,25.0,18.3,12.3,80,45,19,30.35,30.09,12,1,12,0.00
2014-3-15,66.2,52.7,42.8,39.6,32.6,23.9,62,47,25,30.11,30.01,10,0,10,0.00
2014-3-16,50.2,44.9,41.0,46.9,39.1,32.4,96,81,60,30.03,29.69,14,1,14,0.27
2014-3-17,40.9,37.0,33.3,37.9,34.6,30.9,95,91,84,29.92,29.71,11,1,11,0.19
2014-3-18,55.7,41.0,32.3,43.1,36.1,30.2,94,83,60,30.12,29.90,12,1,12,0.00
2014-3-19,62.6,48.5,40.5,46.2,41.9,38.2,93,79,55,30.14,29.93,14,1,14,0.00
2014-3-20,60.7,48.5,41.2,42.5,29.6,16.9,84,53,19,30.11,30.00,10,1,10,0.00
2014-3-21,67.0,47.4,27.6,29.1,24.2,19.6,86,46,18,30.20,30.02,13,1,13,0.00
2014-3-22,68.1,54.7,39.7,42.3,35.5,24.5,71,50,34,30.07,29.95,5,0,5,0.00
2014-3-23,50.4,44.0,36.3,45.1,37.5,24.9,96,78,58,30.17,29.93,9,0,9,0.36
2014-3-24,56.2,38.4,26.3,25.2,20.6,5.1,85,53,19,30.27,30.04,6,0,6,0.00
2014-3-25,41.3,34.1,26.5,33.9,26.8,15.3,95,76,46,30.14,29.88,13,1,15,0.09
2014-3-26,44.6,30.5,21.8,16.7,13.3,8.5,71,51,24,30.35,30.14,14,1,14,0.00
2014-3-27,58.9,41.6,23.6,27.0,19.2,13.7,80,45,21,30.42,30.21,16,1,16,0.00
2014-3-28,58.3,53.9,49.8,51.7,46.8,26.5,89,78,39,30.23,30.05,19,2,19,0.00
2014-3-29,61.9,52.5,36.4,58.6,49.8,33.9,95,91,83,30.07,29.61,15,1,15,0.29
2014-3-30,53.3,39.9,31.7,37.3,31.2,26.8,97,74,42,30.16,29.88,16,1,16,0.19
2014-3-31,77.5,51.4,30.5,32.0,26.2,16.8,84,46,11,30.25,30.07,6,0,6,0.00
2014-4-1,82.5,59.7,42.8,43.3,36.7,26.9,76,46,21,30.17,30.00,8,0,8,0.00
2014-4-2,84.5,61.6,40.9,50.7,40.5,26.4,89,52,19,30.12,29.96,7,0,7,0.00
2014-4-3,83.8,65.9,51.6,54.6,47.2,36.6,84,55,20,30.10,29.81,15,1,15,0.00
2014-4-4,69.8,62.1,53.3,57.5,51.9,44.7,93,70,49,29.87,29.70,14,1,14,0.03
2014-4-5,63.3,50.6,41.5,48.9,37.3,32.6,81,62,35,30.07,29.84,13,1,13,0.00
2014-4-6,63.2,50.3,40.8,41.6,36.1,29.7,84,60,36,30.15,29.98,12,1,13,0.02
2014-4-7,57.6,49.0,43.1,54.1,47.1,40.8,97,93,84,30.04,29.63,12,1,12,1.38
2014-4-8,58.0,48.0,43.4,53.8,41.1,37.9,93,78,58,29.78,29.65,12,1,12,0.00
2014-4-9,63.7,49.2,40.9,42.6,36.3,28.5,91,65,28,30.16,29.78,11,0,11,0.00
2014-4-10,73.9,53.1,33.0,38.5,33.9,30.2,91,54,25,30.30,30.11,10,1,10,0.00
2014-4-11,78.4,60.9,43.7,44.9,38.7,34.3,76,47,25,30.20,30.01,9,0,9,0.00
2014-4-12,81.8,63.3,46.0,50.3,43.1,37.1,84,52,22,30.21,30.04,11,1,11,0.00
2014-4-13,81.5,68.3,58.1,54.0,50.8,44.6,73,55,34,30.10,29.96,12,1,12,0.00
2014-4-14,66.1,62.2,59.1,60.7,55.2,51.6,89,78,65,29.97,29.73,12,1,12,0.02
2014-4-15,61.7,45.8,32.0,57.8,42.7,23.7,97,89,70,30.08,29.58,14,1,14,0.63
2014-4-16,60.7,40.9,26.1,30.5,21.9,11.2,80,52,16,30.40,30.07,10,1,10,0.01
2014-4-17,65.3,47.9,33.6,31.5,26.6,21.9,74,47,21,30.50,30.34,11,1,11,0.00
2014-4-18,53.7,47.1,40.0,44.2,36.0,27.2,95,66,47,30.41,30.21,7,0,7,0.08
2014-4-19,55.5,48.2,44.3,52.3,46.5,43.3,98,94,80,30.25,30.12,7,0,7,0.51
2014-4-20,74.0,55.2,40.2,49.0,40.4,28.1,99,65,25,30.30,30.15,10,1,10,0.00
2014-4-21,79.8,58.5,38.6,46.9,40.0,31.6,88,54,25,30.19,29.93,9,0,9,0.00
2014-4-22,66.9,58.2,48.1,59.0,51.6,44.5,92,79,62,29.93,29.74,2,0,4,0.06
2014-4-23,69.7,56.6,46.2,54.9,35.4,25.6,92,49,21,30.00,29.80,10,1,10,0.00
2014-4-24,76.5,56.8,37.7,39.8,35.0,30.5,83,48,23,30.10,29.91,12,1,12,0.00
2014-4-25,75.4,62.4,54.3,57.2,50.3,37.7,83,65,41,29.93,29.69,16,1,19,0.01
2014-4-26,82.9,61.7,44.3,47.6,40.9,31.6,95,55,18,30.04,29.92,5,0,5,0.00
2014-4-27,86.8,65.2,45.2,55.6,44.7,32.6,85,53,16,30.02,29.85,16,1,16,0.00
2014-4-28,82.5,69.7,58.4,62.4,58.2,54.9,97,69,40,29.93,29.72,13,1,13,0.07
2014-4-29,75.3,66.2,61.6,62.1,60.3,58.6,97,82,61,29.88,29.68,14,2,14,3.79
2014-4-30,71.2,65.1,58.4,61.1,58.1,53.3,88,79,59,29.90,29.77,8,1,11,0.00
2014-5-1,68.0,57.3,49.6,53.7,47.6,38.5,95,72,48,29.92,29.82,11,1,11,0.00
2014-5-2,71.6,56.0,46.6,41.8,38.5,33.9,73,54,29,29.98,29.84,8,0,8,0.00
2014-5-3,74.5,57.9,44.9,44.1,40.9,37.2,83,56,28,29.99,29.89,11,0,11,0.00
2014-5-4,84.7,66.5,53.3,48.8,44.1,40.6,74,48,23,30.04,29.91,12,1,12,0.00
2014-5-5,90.3,72.1,57.4,53.6,48.0,39.6,73,46,19,29.97,29.79,9,0,9,0.00
2014-5-6,89.5,70.2,52.5,53.1,47.6,40.3,84,48,22,29.94,29.83,7,0,7,0.00
2014-5-7,88.5,68.2,50.0,55.1,49.3,42.9,90,55,24,30.07,29.94,7,0,8,0.00
2014-5-8,91.0,70.3,50.5,58.6,51.3,42.5,91,56,20,30.18,30.03,10,0,10,0.00
2014-5-9,75.5,65.6,57.4,61.8,57.4,54.2,97,76,52,30.10,30.00,5,0,8,0.20
2014-5-10,72.2,63.6,56.9,64.3,59.3,56.2,98,87,62,30.09,29.99,10,0,10,0.00
2014-5-11,87.0,67.4,50.9,61.6,55.6,48.1,99,72,27,30.16,30.04,6,0,6,0.00
2014-5-12,88.4,71.5,57.5,65.8,60.6,55.5,97,72,36,30.16,30.05,5,0,8,0.00
2014-5-13,89.5,70.7,59.4,66.8,61.2,55.4,97,76,32,30.13,30.01,11,0,11,0.00
2014-5-14,84.0,69.9,57.6,63.4,59.2,53.8,98,72,40,30.11,29.92,15,1,15,0.19
2014-5-15,67.0,58.5,47.7,65.3,57.0,46.3,97,95,88,29.99,29.83,12,1,12,1.48
2014-5-16,59.6,48.4,40.4,48.9,43.5,39.3,96,84,53,30.14,29.97,10,0,10,0.22
2014-5-17,60.5,48.0,37.2,47.4,42.0,36.4,98,82,53,30.24,30.12,5,0,5,0.00
2014-5-18,65.0,52.1,43.5,51.6,46.9,42.1,97,84,56,30.25,30.16,9,0,9,0.01
2014-5-19,76.3,56.1,40.4,51.1,45.9,39.3,98,73,33,30.32,30.18,10,1,10,0.00
2014-5-20,81.7,63.5,47.7,62.1,54.2,46.2,96,74,43,30.27,30.06,7,0,7,0.00
2014-5-21,83.3,67.3,51.3,61.6,56.2,50.2,98,72,41,30.13,29.98,7,0,8,0.00
2014-5-22,83.9,70.2,58.4,65.8,61.0,55.7,95,74,49,30.08,29.90,5,0,8,0.03
2014-5-23,66.2,64.3,63.3,63.9,62.7,61.6,97,95,91,30.13,29.97,15,0,16,0.01
2014-6-2,80.6,66.5,54.3,61.5,56.3,52.4,96,72,48,30.23,30.07,3,0,8,0.00
2014-6-3,79.4,66.7,55.5,66.2,60.3,53.8,95,81,62,30.12,29.97,1,0,5,0.00
2014-6-4,88.5,70.6,56.7,67.0,62.0,55.6,98,78,42,30.00,29.77,3,0,6,0.00
2014-6-5,80.1,70.4,63.5,67.7,65.0,62.6,98,84,62,29.86,29.73,1,0,5,0.00
2014-6-6,83.6,71.1,63.6,65.7,62.8,60.2,98,78,48,29.91,29.83,2,0,6,0.00
2014-6-7,87.4,71.1,59.7,67.5,63.0,58.3,96,78,49,29.97,29.87,2,0,8,0.00
2014-6-8,86.9,73.6,65.3,67.0,64.1,60.0,90,74,48,29.91,29.80,2,0,9,0.00
2014-6-9,88.2,70.2,57.7,65.8,61.1,55.9,95,75,41,29.90,29.82,12,0,12,0.00
2014-6-10,89.8,72.6,61.3,68.4,63.3,59.8,96,76,44,29.96,29.82,13,0,13,0.02
2014-6-11,84.8,72.3,62.5,66.7,62.7,59.1,95,74,44,29.90,29.74,12,1,12,0.02
2014-6-12,78.3,69.0,61.5,65.5,62.3,59.1,94,80,55,29.86,29.78,11,1,11,0.03
2014-6-13,83.3,66.7,60.2,64.1,61.5,58.8,98,85,49,29.93,29.82,11,0,11,0.05
2014-6-14,85.7,69.7,59.2,64.2,58.5,49.5,98,73,31,30.04,29.93,9,0,9,0.00
2014-6-15,89.5,72.2,58.5,68.0,62.1,56.2,94,73,42,30.14,30.03,6,0,9,0.00
2014-6-16,88.8,74.4,67.1,68.6,66.3,63.8,96,78,47,30.17,30.08,12,0,12,0.00
2014-6-17,93.1,75.3,61.8,68.2,64.1,60.6,98,72,37,30.18,30.05,6,0,6,0.00
2014-6-18,92.7,72.7,63.0,69.3,65.5,61.6,97,80,41,30.12,30.04,16,0,16,0.03
2014-6-19,92.1,75.5,61.7,69.0,64.8,60.6,98,73,40,30.13,30.02,11,0,11,0.00
2014-6-20,91.1,73.3,61.1,69.6,64.4,60.2,97,77,45,30.07,29.92,9,0,9,0.00
2014-6-21,86.0,72.5,64.2,69.3,65.1,62.5,96,79,49,29.94,29.83,10,0,10,0.03
2014-6-22,89.8,73.9,62.1,66.6,62.3,56.9,97,71,38,29.91,29.82,10,0,10,0.00
2014-6-23,88.3,73.7,64.8,69.2,65.1,60.8,93,76,49,30.05,29.91,8,0,8,0.30
2014-6-24,83.0,71.9,64.9,71.2,66.9,63.9,97,85,62,30.05,29.93,9,0,10,0.02
2014-6-25,83.3,72.1,63.8,68.6,65.7,62.5,97,81,55,29.99,29.92,8,0,8,0.00
2014-6-26,87.8,74.4,64.7,66.8,63.7,58.7,96,73,40,30.02,29.90,6,0,7,0.00
2014-6-27,86.5,73.4,66.2,67.9,65.4,63.0,92,77,51,30.07,29.95,11,0,11,0.00
2014-6-28,83.0,72.3,66.6,70.5,66.8,63.9,97,84,59,30.16,30.06,9,0,9,0.29
2014-6-29,87.7,71.4,65.1,71.1,66.8,64.5,98,87,51,30.19,30.06,7,0,7,1.18
2014-6-30,84.5,70.6,64.7,70.2,66.9,63.9,98,89,55,30.09,29.93,6,0,6,0.00
2014-7-1,93.0,76.1,64.3,70.9,67.3,63.3,98,78,44,29.98,29.83,6,0,6,0.00
2014-7-2,93.3,75.0,66.5,71.0,67.7,63.2,98,81,42,29.95,29.85,7,0,7,0.54
2014-7-3,87.0,71.9,63.9,69.4,64.4,55.5,99,79,53,30.00,29.89,10,0,10,0.00
2014-7-4,80.5,67.3,56.7,58.8,55.0,50.8,92,67,39,30.20,30.00,7,0,7,0.00
2014-7-5,84.2,66.3,50.3,60.6,54.2,48.3,95,68,37,30.28,30.15,8,0,8,0.00
2014-7-6,87.7,69.4,55.6,63.0,58.0,53.8,96,70,35,30.18,30.00,6,0,6,0.00
2014-7-7,88.8,72.4,58.1,68.3,62.5,56.6,97,74,42,30.05,29.88,9,0,9,0.00
2014-7-8,88.3,71.0,60.3,68.0,63.4,58.9,97,80,42,30.02,29.88,8,0,8,0.07
2014-7-9,83.8,70.2,64.3,70.3,66.1,61.8,98,88,59,30.03,29.92,6,0,6,0.27
2014-7-10,83.3,69.9,63.9,71.2,65.8,63.2,98,88,56,30.09,29.98,10,0,10,0.14
2014-7-11,88.0,73.2,63.5,69.2,65.9,62.6,98,80,49,30.16,30.08,8,0,8,0.00
2014-7-12,90.5,75.3,66.0,70.1,66.7,62.7,97,77,45,30.17,30.08,10,0,10,0.00
2014-7-13,88.0,74.8,65.4,72.6,68.1,64.1,97,81,52,30.11,29.97,5,0,5,0.00
2014-7-14,89.9,74.3,66.3,74.3,68.4,65.4,97,84,50,29.99,29.83,7,0,7,0.06
2014-7-15,81.8,70.2,64.1,70.1,66.1,62.6,98,88,62,29.89,29.75,9,0,9,0.03
2014-7-16,81.0,66.2,56.2,62.9,55.6,48.0,97,72,34,29.97,29.83,7,0,7,0.00
2014-7-17,83.3,66.9,54.9,61.3,56.7,52.7,95,72,44,30.06,29.96,9,0,9,0.00
2014-7-18,67.2,64.5,62.8,65.0,62.6,58.6,98,94,77,30.14,30.06,7,0,7,0.73
2014-7-19,66.0,63.4,61.9,63.6,61.9,60.0,98,95,87,30.11,30.05,6,0,6,0.30
2014-7-20,83.7,69.0,61.5,70.2,64.0,59.5,96,85,57,30.11,29.98,10,0,10,0.00
2014-7-21,78.0,69.3,62.5,71.1,66.1,61.4,98,90,77,30.11,30.01,8,0,8,0.09
2014-7-22,85.8,72.9,63.8,71.0,66.9,62.9,98,83,58,30.14,30.03,8,0,8,0.00
2014-7-23,83.2,71.1,65.2,71.2,67.6,64.0,98,89,66,30.08,29.93,8,0,8,1.21
2014-7-24,85.0,70.1,64.7,72.2,67.5,64.1,99,92,60,29.96,29.85,7,0,7,0.34
2014-7-25,87.7,72.4,63.7,67.2,64.9,61.3,98,80,43,30.03,29.92,10,0,10,0.00
2014-7-26,89.5,74.3,64.9,69.7,64.3,57.8,98,75,36,30.01,29.90,7,0,7,0.00
2014-7-27,90.5,74.0,65.4,73.8,67.5,63.9,97,82,51,29.98,29.77,7,0,7,0.51
2014-7-28,80.0,68.5,62.0,67.0,61.7,57.8,99,81,49,29.94,29.81,11,0,11,0.65
2014-7-29,79.0,65.2,57.2,59.5,56.0,51.2,95,74,44,30.04,29.90,10,0,10,0.00
2014-7-30,81.4,62.8,50.3,58.7,53.9,49.3,97,76,42,30.10,30.03,5,0,5,0.00
2014-7-31,68.8,62.2,55.0,64.2,58.4,53.7,97,88,77,30.12,30.08,7,0,7,0.00
2014-8-1,77.8,66.4,60.6,65.7,61.9,59.1,98,86,63,30.12,30.01,10,0,10,0.13
2014-8-2,79.0,67.6,61.6,69.4,63.4,59.8,96,87,67,30.10,30.01,9,0,9,0.05
2014-8-3,85.5,70.6,62.3,65.1,62.3,59.0,97,78,45,30.10,30.00,8,0,8,0.00
2014-8-4,81.5,67.8,58.8,68.6,62.2,57.4,97,84,55,30.09,30.00,5,0,5,0.01
2014-8-5,85.3,70.7,60.8,66.4,62.7,59.9,98,78,47,30.07,29.97,6,0,6,0.00
2014-8-6,87.3,69.6,57.1,66.6,62.0,56.0,98,79,46,30.03,29.93,6,0,6,0.00
2014-8-7,85.8,71.7,62.0,68.2,63.6,61.0,98,78,46,30.00,29.93,7,0,7,0.00
2014-8-8,75.9,68.0,63.6,70.3,65.5,61.9,98,92,81,30.08,29.97,7,0,7,0.72
2014-8-9,86.0,71.9,66.6,72.2,67.7,64.5,96,87,55,30.03,29.92,10,0,10,0.40
2014-8-10,78.9,69.1,65.3,69.7,65.4,63.3,96,88,72,30.04,29.94,10,1,10,0.02
2014-8-11,85.8,71.9,65.5,72.2,67.6,64.2,97,87,58,30.03,29.86,9,0,9,0.04
2014-8-12,83.6,73.0,66.9,70.8,67.9,64.7,98,85,60,29.88,29.75,7,0,7,0.05
2014-8-13,74.8,66.1,59.5,65.6,59.9,55.8,97,82,59,30.03,29.85,9,0,9,0.00
2014-8-14,84.8,65.6,52.8,60.9,56.6,51.6,98,77,37,30.08,29.96,5,0,5,0.00
2014-8-15,85.8,67.3,54.9,62.8,57.9,53.2,97,76,35,30.05,29.95,6,0,6,0.00
2014-8-16,84.9,68.3,55.9,64.4,59.1,52.7,98,76,34,30.06,29.98,3,0,4,0.00
2014-8-17,86.0,70.5,60.8,68.4,63.9,59.1,96,81,48,30.03,29.92,4,0,4,0.00
2014-8-18,84.5,72.4,66.0,70.5,67.0,63.6,98,85,56,29.95,29.78,9,0,9,0.07
2014-8-19,84.9,73.2,66.7,68.8,66.7,64.2,98,82,54,29.88,29.79,8,0,8,0.00
2014-8-20,92.1,71.9,61.7,70.7,65.1,60.8,98,82,40,30.11,29.88,9,0,9,0.01
2014-8-21,89.5,72.7,62.0,70.5,65.7,61.2,98,81,50,30.13,30.03,7,0,7,0.00
2014-8-22,91.2,76.0,65.0,71.6,67.5,63.9,98,78,46,30.08,29.93,4,0,8,0.00
2014-8-23,90.8,76.0,66.5,71.3,68.4,65.6,98,80,49,29.98,29.86,9,0,10,0.00
2014-8-24,81.2,71.9,65.8,69.4,66.3,61.9,97,83,66,30.05,29.89,11,0,11,0.00
2014-8-25,83.8,71.1,65.4,66.2,61.8,58.5,87,73,54,30.09,29.99,8,0,8,0.00
2014-8-26,86.5,69.1,55.3,63.8,59.5,53.6,96,74,45,30.15,30.02,7,0,7,0.00
2014-8-27,89.4,69.6,55.8,62.9,59.6,54.6,98,75,37,30.10,29.98,8,0,8,0.00
2014-8-28,93.8,70.4,57.4,71.2,62.6,55.7,98,80,37,30.05,29.93,6,0,6,0.84
2014-8-29,88.3,73.4,63.3,70.4,66.6,62.7,99,82,49,30.09,30.00,4,0,7,0.00
2014-8-30,87.2,73.8,64.1,69.8,66.8,61.7,98,80,48,30.14,30.03,7,0,7,0.06
2014-8-31,87.8,74.0,66.0,72.2,68.3,65.4,98,84,52,30.11,30.01,9,0,9,0.36
2014-9-1,87.7,72.4,66.5,72.8,68.0,64.5,98,88,49,30.10,30.01,15,0,15,0.67
2014-9-2,88.0,72.4,63.2,73.3,67.8,62.6,99,87,55,30.08,29.92,10,0,10,0.14
2014-9-3,88.2,71.9,63.0,71.1,66.5,62.4,99,85,52,30.07,29.96,5,0,5,0.00
2014-9-4,83.8,72.4,67.0,72.9,68.3,65.5,97,88,66,30.14,30.04,6,0,8,0.09
2014-9-5,86.7,71.8,66.4,72.4,68.1,65.8,98,89,59,30.18,30.03,3,0,4,0.06
2014-9-6,89.3,71.3,66.0,73.7,67.8,65.4,99,90,52,30.07,29.92,5,0,6,0.09
2014-9-7,86.1,70.6,65.3,71.5,66.9,64.7,98,89,55,30.04,29.92,7,0,9,0.13
2014-9-8,79.5,68.7,64.6,68.6,65.5,62.2,99,90,67,30.08,29.99,9,1,9,0.21
2014-9-9,87.5,70.6,64.2,70.0,64.9,62.0,95,83,49,30.11,29.99,11,0,13,0.00
2014-9-10,79.3,70.4,65.3,67.0,64.7,62.2,92,83,64,30.08,29.96,6,0,8,0.00
2014-9-11,85.3,71.6,63.9,72.2,67.3,62.7,98,87,60,30.02,29.93,6,0,7,0.12
2014-9-12,86.7,72.5,65.9,71.4,68.0,65.3,99,87,55,30.05,29.93,7,0,9,0.51
2014-9-13,76.0,68.8,62.2,69.1,65.8,59.5,99,91,72,30.15,29.97,6,0,7,0.00
2014-9-14,69.8,64.6,62.0,62.6,60.3,58.6,95,86,75,30.21,30.12,8,1,8,0.00
2014-9-15,81.2,67.7,60.7,67.7,63.2,59.5,97,87,59,30.19,30.06,11,0,11,0.28
2014-9-16,79.8,68.6,62.4,67.8,64.8,60.4,99,89,62,30.10,29.92,7,0,8,0.00
2014-9-17,80.0,65.7,58.8,66.4,60.8,56.5,97,85,60,29.96,29.85,8,0,10,0.00
2014-9-18,76.8,63.6,55.8,60.8,57.2,54.3,98,82,48,30.03,29.91,6,0,6,0.00
2014-9-19,78.2,64.4,56.2,65.4,59.6,55.4,98,85,60,30.18,30.03,8,0,8,0.00
2014-9-20,81.0,65.8,57.8,61.4,58.0,54.7,95,78,44,30.19,30.00,6,0,7,0.00
2014-9-21,84.3,65.5,53.2,64.6,59.5,52.4,98,83,48,30.04,29.84,8,0,9,0.00
2014-9-22,73.1,61.2,51.9,64.3,52.2,49.0,92,74,47,30.17,29.91,7,0,8,0.00
2014-9-23,72.4,56.1,45.5,56.4,50.6,44.4,98,83,54,30.30,30.16,8,0,10,0.00
2014-9-24,76.7,58.7,46.6,57.7,50.7,45.5,98,78,38,30.36,30.24,7,0,7,0.00
2014-9-25,77.8,65.1,58.7,64.8,60.0,56.7,94,85,61,30.25,30.12,7,0,8,0.00
2014-9-26,78.3,65.1,57.7,64.3,60.3,56.6,97,85,59,30.19,30.11,10,0,10,0.00
2014-9-27,77.8,64.4,55.8,61.1,57.9,54.7,97,81,53,30.21,30.10,7,0,8,0.00
2014-9-28,74.0,61.5,52.7,63.2,57.2,51.6,97,87,62,30.20,30.07,3,0,3,0.00
2014-9-29,66.2,62.7,58.2,63.6,60.8,57.3,98,94,88,30.07,29.94,5,0,6,0.03
2014-9-30,80.8,64.3,55.6,62.3,57.6,53.6,98,82,41,29.98,29.86,7,0,7,0.01
2014-10-1,82.3,61.7,49.2,61.2,54.4,48.4,98,80,37,30.05,29.93,4,0,6,0.00
2014-10-2,84.5,64.1,50.0,61.5,55.8,49.2,99,78,37,30.14,29.99,7,0,8,0.00
2014-10-3,75.8,66.0,58.2,68.1,61.7,56.7,95,86,76,30.01,29.72,9,1,9,0.11
2014-10-4,59.8,49.2,40.8,57.7,39.1,29.7,95,70,39,29.94,29.77,9,1,13,0.01
2014-10-5,67.1,47.0,30.6,43.5,34.0,25.9,96,66,23,30.06,29.93,7,0,7,0.00
2014-10-6,68.0,54.0,41.9,56.1,48.0,40.3,97,81,52,30.07,29.93,10,0,12,0.31
2014-10-7,65.8,58.6,52.6,61.8,56.0,52.0,98,91,76,30.11,29.95,7,0,7,0.25
2014-10-8,78.5,65.0,55.0,63.4,57.8,52.4,99,80,42,30.08,29.96,6,0,10,0.02
2014-10-9,80.8,59.8,49.5,63.6,55.1,48.7,98,87,41,30.16,30.06,7,0,7,0.09
2014-10-10,82.3,66.0,54.7,65.5,60.0,54.1,99,84,47,30.10,29.94,12,1,12,0.01
2014-10-11,75.4,66.0,60.4,65.8,62.3,59.1,97,88,68,30.03,29.90,8,0,8,0.00
2014-10-12,69.8,61.6,56.6,62.2,59.0,53.7,98,91,75,30.16,29.99,11,0,11,0.16
2014-10-13,73.8,63.4,55.6,63.4,59.2,53.4,96,87,69,30.18,30.02,14,1,14,0.00
2014-10-14,67.8,66.3,64.1,65.0,62.1,60.1,96,87,79,30.02,29.72,17,2,17,0.43
2014-10-15,64.8,54.1,48.9,57.6,50.5,44.5,99,89,49,29.84,29.77,3,0,8,0.00
2014-10-16,59.2,52.3,47.9,51.2,49.4,47.3,98,90,72,29.94,29.78,7,0,7,0.07
2014-10-17,75.8,55.6,43.9,56.2,48.9,43.3,98,82,38,29.98,29.82,4,0,5,0.00
2014-10-18,64.5,56.4,48.4,54.5,48.5,42.9,92,76,54,30.02,29.81,10,1,10,0.00
2014-10-19,68.7,51.6,44.4,48.6,42.2,39.9,90,72,38,30.19,30.01,9,0,9,0.00
2014-10-20,72.3,51.7,39.7,51.9,44.4,38.7,98,80,38,30.13,29.97,5,0,5,0.00
2014-10-21,65.3,51.7,42.3,50.9,44.2,36.1,98,78,47,30.05,29.93,10,0,10,0.00
2014-10-22,57.4,47.0,40.4,40.9,38.4,35.7,86,72,52,30.20,30.04,10,0,10,0.00
2014-10-23,63.4,47.9,39.2,43.5,39.9,36.8,92,76,46,30.21,30.06,8,0,8,0.00
2014-10-24,67.3,48.3,35.8,42.8,38.0,31.1,97,73,28,30.14,30.02,5,0,5,0.00
2014-10-25,71.5,50.9,34.5,50.3,41.3,28.1,97,74,29,30.12,30.00,10,0,10,0.00
2014-10-26,74.9,59.2,48.6,55.4,48.1,43.3,98,71,34,30.03,29.94,11,1,11,0.00
2014-10-27,83.0,60.0,42.5,52.3,47.4,41.1,98,68,30,30.14,30.02,7,0,7,0.00
2014-10-28,80.7,61.3,46.2,59.0,51.4,43.9,96,73,28,30.13,30.00,7,0,7,0.00
2014-10-29,60.0,51.9,42.7,55.4,48.6,40.5,97,89,75,30.08,29.99,3,0,6,0.04
2014-10-30,65.3,45.7,32.7,40.7,36.5,30.2,98,75,29,30.12,29.99,5,0,5,0.00
2014-10-31,54.5,40.6,31.8,41.8,36.8,30.4,96,87,59,30.02,29.85,9,0,9,0.09
2014-11-1,34.1,31.9,30.6,32.1,30.7,29.4,96,95,89,30.26,29.85,7,0,7,0.01
2014-11-2,45.7,33.8,27.9,31.4,27.5,25.0,93,79,50,30.48,30.26,9,0,9,0.15
2014-11-3,65.0,40.0,23.7,34.2,27.3,18.9,96,67,19,30.55,30.39,3,0,3,0.03
2014-11-4,74.5,49.5,32.7,40.0,32.8,22.7,93,60,15,30.42,30.21,10,0,10,0.00
2014-11-5,64.9,53.2,42.3,50.2,42.5,33.1,84,68,44,30.29,30.11,7,0,7,0.00
2014-11-6,71.5,55.4,43.6,54.3,44.3,30.2,95,69,28,30.11,29.78,16,1,16,0.00
2014-11-7,49.5,40.4,31.8,36.6,33.6,29.5,93,77,56,30.15,29.96,14,1,14,0.00
2014-11-8,61.0,41.7,28.3,38.3,33.4,26.8,96,75,41,30.10,29.95,9,0,9,0.00
2014-11-9,65.8,45.8,33.2,40.3,35.7,31.3,94,71,28,30.07,29.94,3,0,3,0.00
2014-11-10,67.8,47.6,31.9,44.0,37.7,30.6,96,72,35,30.13,30.03,9,0,9,0.00
2014-11-11,76.7,49.8,32.2,43.1,36.0,29.2,96,67,19,30.10,29.92,4,0,8,0.00
2014-11-12,64.3,49.2,41.3,51.5,43.8,36.8,93,82,61,30.11,29.98,7,0,7,0.00
2014-11-13,43.0,37.1,28.1,40.8,34.5,26.0,96,90,81,30.18,30.05,5,0,8,0.00
2014-11-14,32.0,25.9,19.3,26.1,18.2,14.4,92,73,53,30.40,30.17,8,0,9,0.00
2014-11-15,48.2,29.1,14.9,20.1,15.7,12.4,92,62,29,30.50,30.34,9,0,10,0.00
2014-11-16,48.2,41.7,34.5,43.0,26.8,16.3,85,56,43,30.36,29.98,14,0,14,0.00
2014-11-17,49.9,47.7,46.3,48.2,45.7,42.9,96,93,85,29.98,29.73,12,1,12,0.49
2014-11-18,29.9,20.3,16.1,20.3,12.1,6.7,87,71,44,30.40,30.02,8,0,10,0.00
2014-11-19,45.3,26.2,10.7,19.5,12.4,6.9,87,59,28,30.46,30.26,9,0,9,0.00
2014-11-20,52.9,37.5,25.4,30.5,24.8,18.7,84,62,32,30.28,30.13,6,0,9,0.00
2014-11-21,52.7,36.9,28.7,23.7,15.4,5.3,71,45,16,30.52,30.25,8,0,8,0.00
2014-11-22,59.1,40.4,25.2,31.1,21.8,13.4,74,50,28,30.55,30.29,11,0,11,0.00
2014-11-23,55.2,48.9,41.7,52.7,42.5,22.5,97,82,37,30.30,29.64,12,1,12,0.89
2014-11-24,74.4,59.7,50.3,52.4,45.7,38.1,91,64,31,29.92,29.67,14,1,14,0.00
2014-11-25,57.7,47.6,41.8,38.9,30.9,21.7,73,54,26,30.10,29.92,6,0,6,0.00
2014-11-26,52.7,41.5,35.3,39.5,35.0,28.3,96,79,47,30.05,29.94,6,0,6,0.39
2014-11-27,39.2,32.8,26.9,32.9,29.0,19.7,95,86,65,30.39,29.98,12,0,12,0.04
2014-11-28,44.2,30.0,24.2,23.7,20.7,18.0,81,69,37,30.47,30.32,10,0,10,0.00
2014-11-29,61.9,39.5,23.6,39.1,27.7,21.4,92,67,32,30.35,30.21,8,0,8,0.00
2014-11-30,70.4,48.7,31.1,46.5,38.7,29.4,96,72,37,30.33,30.21,4,0,7,0.00
2014-12-1,71.2,51.8,37.1,51.3,45.4,35.8,97,81,47,30.41,30.27,6,0,6,0.00
2014-12-2,62.8,53.2,44.8,52.9,48.7,43.7,98,85,69,30.31,30.20,9,1,11,0.00
2014-12-3,63.4,54.7,49.4,52.6,49.0,45.7,91,82,58,30.25,30.17,7,1,9,0.00
2014-12-4,59.9,51.1,43.3,48.8,45.3,42.1,97,81,66,30.33,30.23,10,0,10,0.00
2014-12-5,54.1,49.5,44.7,50.2,46.4,40.9,97,89,74,30.40,30.27,14,1,14,0.02
2014-12-6,56.4,50.2,41.4,54.4,48.0,39.3,96,92,87,30.28,30.03,17,1,17,0.14
2014-12-7,54.4,40.5,33.0,39.5,34.0,19.0,93,79,46,30.43,30.27,8,0,8,0.00
2014-12-8,39.9,36.2,30.0,34.0,25.7,15.3,95,67,43,30.42,30.21,10,0,10,0.00
2014-12-9,39.4,35.0,28.8,36.0,32.7,27.5,96,91,86,30.21,30.07,9,0,9,0.02
2014-12-10,35.7,33.6,30.8,32.1,29.2,23.8,92,84,75,30.18,30.12,11,1,11,0.01
2014-12-11,42.3,31.5,27.6,25.7,22.8,20.6,81,71,47,30.31,30.12,15,0,15,0.00
2014-12-12,51.9,34.6,20.9,21.5,14.9,0.9,85,51,13,30.43,30.31,2,0,6,0.00
2014-12-13,55.9,37.4,24.9,29.8,22.9,16.9,82,58,27,30.33,30.19,5,0,8,0.00
2014-12-14,51.2,33.3,26.7,34.7,28.2,24.5,95,83,45,30.21,30.12,5,0,5,0.00
2014-12-15,62.2,39.0,21.0,38.2,28.5,19.3,97,71,31,30.19,30.06,13,0,13,0.00
2014-12-16,56.7,48.2,42.1,49.3,41.7,34.8,92,78,61,30.10,29.86,12,1,12,0.00
2014-12-17,48.7,40.7,33.9,37.6,34.8,31.0,89,80,58,30.22,30.09,9,0,9,0.00
2014-12-18,52.4,39.2,32.2,33.4,28.0,13.5,91,68,23,30.24,30.09,10,0,10,0.00
2014-12-19,50.2,40.1,34.7,32.5,28.0,25.2,74,62,50,30.21,30.12,4,0,4,0.00
2014-12-20,46.4,41.2,36.3,39.8,35.8,27.6,90,81,70,30.24,30.16,9,0,9,0.01
2014-12-21,50.9,41.8,36.3,40.0,37.0,34.2,93,83,65,30.27,30.13,8,0,8,0.00
2014-12-22,48.4,41.8,39.3,42.7,39.2,36.9,95,90,80,30.16,29.96,16,1,16,0.01
2014-12-23,53.2,46.0,39.1,52.1,45.0,38.3,98,96,92,30.04,29.84,8,1,11,0.36
2014-12-24,55.4,50.5,42.5,54.0,49.4,38.8,98,96,89,29.87,29.58,11,1,11,0.81
2014-12-25,49.1,38.9,29.7,39.0,32.5,27.9,94,79,54,30.31,29.78,10,0,10,0.00
2014-12-26,62.7,36.9,24.2,36.4,28.5,21.4,97,76,21,30.43,30.28,3,0,3,0.00
2014-12-27,57.9,45.2,33.1,41.1,33.8,26.6,94,68,33,30.39,30.16,14,0,14,0.00
2014-12-28,57.9,50.9,47.3,52.4,43.5,31.3,96,77,43,30.18,30.00,15,0,15,0.02
2014-12-29,55.7,48.8,43.7,51.2,47.4,42.3,98,95,81,30.12,30.02,2,0,4,0.37
2014-12-30,43.6,38.3,30.7,42.3,35.6,27.5,96,90,80,30.46,30.11,9,0,9,0.01
2014-12-31,42.8,31.4,25.9,28.3,24.1,19.7,91,76,42,30.51,30.41,9,0,9,0.00
2015-1-1,49.5,33.4,20.6,33.1,24.6,18.1,93,72,40,30.42,30.29,7,0,7,0.00
2015-1-2,51.1,43.2,36.1,44.8,37.2,30.0,97,80,64,30.37,30.29,6,0,6,0.01